sensor_id;sensor_type;location;lat;lon;timestamp;pressure;altitude;pressure_sealevel;temperature;humidity
24154;BME280;12312;53.362;-1.518;2023-02-12T00:00:49;101309.41;;;7.90;87.70
24154;BME280;12312;53.362;-1.518;2023-02-12T00:03:16;101306.63;;;7.62;89.98
24154;BME280;12312;53.362;-1.518;2023-02-12T00:05:42;101299.03;;;7.50;90.75
24154;BME280;12312;53.362;-1.518;2023-02-12T00:08:08;101298.09;;;7.51;90.89
24154;BME280;12312;53.362;-1.518;2023-02-12T00:10:39;101309.03;;;7.71;90.69
24154;BME280;12312;53.362;-1.518;2023-02-12T00:13:07;101305.56;;;8.00;88.34
24154;BME280;12312;53.362;-1.518;2023-02-12T00:15:37;101287.66;;;7.77;87.81
24154;BME280;12312;53.362;-1.518;2023-02-12T00:18:03;101289.81;;;7.63;89.88
24154;BME280;12312;53.362;-1.518;2023-02-12T00:20:31;101292.81;;;7.51;90.17
24154;BME280;12312;53.362;-1.518;2023-02-12T00:22:56;101295.53;;;7.48;90.59
24154;BME280;12312;53.362;-1.518;2023-02-12T00:25:22;101293.38;;;7.62;90.56
24154;BME280;12312;53.362;-1.518;2023-02-12T00:27:47;101283.41;;;7.72;90.03
24154;BME280;12312;53.362;-1.518;2023-02-12T00:30:13;101282.00;;;7.89;89.45
24154;BME280;12312;53.362;-1.518;2023-02-12T00:32:39;101281.66;;;8.01;88.78
24154;BME280;12312;53.362;-1.518;2023-02-12T00:35:05;101284.97;;;8.09;87.03
24154;BME280;12312;53.362;-1.518;2023-02-12T00:37:30;101267.75;;;7.63;90.05
24154;BME280;12312;53.362;-1.518;2023-02-12T00:39:56;101269.91;;;7.49;91.03
24154;BME280;12312;53.362;-1.518;2023-02-12T00:42:21;101263.41;;;7.60;90.47
24154;BME280;12312;53.362;-1.518;2023-02-12T00:44:47;101268.53;;;7.66;89.54
24154;BME280;12312;53.362;-1.518;2023-02-12T00:47:12;101272.03;;;7.68;89.47
24154;BME280;12312;53.362;-1.518;2023-02-12T00:49:38;101266.69;;;7.70;90.91
24154;BME280;12312;53.362;-1.518;2023-02-12T00:52:09;101277.06;;;7.77;89.98
24154;BME280;12312;53.362;-1.518;2023-02-12T00:54:34;101266.53;;;7.74;90.49
24154;BME280;12312;53.362;-1.518;2023-02-12T00:57:02;101248.38;;;7.91;87.93
24154;BME280;12312;53.362;-1.518;2023-02-12T00:59:28;101256.88;;;8.02;87.53
24154;BME280;12312;53.362;-1.518;2023-02-12T01:01:54;101254.41;;;7.96;87.52
24154;BME280;12312;53.362;-1.518;2023-02-12T01:04:21;101257.78;;;8.01;87.68
24154;BME280;12312;53.362;-1.518;2023-02-12T01:06:46;101253.78;;;7.88;87.08
24154;BME280;12312;53.362;-1.518;2023-02-12T01:09:13;101260.72;;;7.92;87.20
24154;BME280;12312;53.362;-1.518;2023-02-12T01:11:40;101252.75;;;7.92;87.15
24154;BME280;12312;53.362;-1.518;2023-02-12T01:14:06;101257.09;;;7.95;86.72
24154;BME280;12312;53.362;-1.518;2023-02-12T01:16:32;101264.38;;;7.88;88.33
24154;BME280;12312;53.362;-1.518;2023-02-12T01:19:00;101259.75;;;7.64;88.35
24154;BME280;12312;53.362;-1.518;2023-02-12T01:21:29;101252.13;;;7.52;89.36
24154;BME280;12312;53.362;-1.518;2023-02-12T01:23:56;101263.94;;;7.73;88.41
24154;BME280;12312;53.362;-1.518;2023-02-12T01:26:27;101272.56;;;7.81;88.59
24154;BME280;12312;53.362;-1.518;2023-02-12T01:28:59;101270.03;;;7.76;89.28
24154;BME280;12312;53.362;-1.518;2023-02-12T01:31:31;101261.06;;;7.80;89.95
24154;BME280;12312;53.362;-1.518;2023-02-12T01:33:58;101259.69;;;7.96;88.79
24154;BME280;12312;53.362;-1.518;2023-02-12T01:36:25;101260.34;;;8.04;87.39
24154;BME280;12312;53.362;-1.518;2023-02-12T01:38:51;101260.34;;;8.04;86.73
24154;BME280;12312;53.362;-1.518;2023-02-12T01:41:19;101259.63;;;7.99;87.03
24154;BME280;12312;53.362;-1.518;2023-02-12T01:44:24;101256.97;;;7.99;87.15
24154;BME280;12312;53.362;-1.518;2023-02-12T01:46:59;101264.47;;;7.85;87.52
24154;BME280;12312;53.362;-1.518;2023-02-12T01:49:31;101261.84;;;7.53;89.64
24154;BME280;12312;53.362;-1.518;2023-02-12T01:52:02;101260.00;;;7.86;87.38
24154;BME280;12312;53.362;-1.518;2023-02-12T01:54:29;101261.94;;;7.81;88.07
24154;BME280;12312;53.362;-1.518;2023-02-12T01:56:59;101256.75;;;7.78;89.99
24154;BME280;12312;53.362;-1.518;2023-02-12T01:59:26;101265.34;;;7.84;88.76
24154;BME280;12312;53.362;-1.518;2023-02-12T02:01:52;101255.31;;;7.95;86.14
24154;BME280;12312;53.362;-1.518;2023-02-12T02:04:23;101259.13;;;7.56;88.57
24154;BME280;12312;53.362;-1.518;2023-02-12T02:07:11;101254.00;;;7.50;87.08
24154;BME280;12312;53.362;-1.518;2023-02-12T02:09:38;101264.72;;;7.76;82.09
24154;BME280;12312;53.362;-1.518;2023-02-12T02:12:05;101266.47;;;7.77;81.56
24154;BME280;12312;53.362;-1.518;2023-02-12T02:14:52;101270.06;;;7.44;83.04
24154;BME280;12312;53.362;-1.518;2023-02-12T02:23:33;101266.63;;;7.71;85.50
24154;BME280;12312;53.362;-1.518;2023-02-12T02:26:21;101268.34;;;7.72;87.16
24154;BME280;12312;53.362;-1.518;2023-02-12T02:32:20;101269.59;;;7.91;84.21
24154;BME280;12312;53.362;-1.518;2023-02-12T02:40:50;101253.13;;;7.80;87.71
24154;BME280;12312;53.362;-1.518;2023-02-12T02:43:32;101261.19;;;7.45;88.58
24154;BME280;12312;53.362;-1.518;2023-02-12T02:46:17;101261.25;;;7.74;90.36
24154;BME280;12312;53.362;-1.518;2023-02-12T02:48:48;101259.31;;;7.49;86.92
24154;BME280;12312;53.362;-1.518;2023-02-12T02:51:20;101253.69;;;7.28;87.97
24154;BME280;12312;53.362;-1.518;2023-02-12T02:54:04;101246.53;;;7.63;87.78
24154;BME280;12312;53.362;-1.518;2023-02-12T02:56:34;101250.72;;;7.71;84.69
24154;BME280;12312;53.362;-1.518;2023-02-12T02:59:25;101251.50;;;7.44;87.04
24154;BME280;12312;53.362;-1.518;2023-02-12T03:01:54;101251.00;;;7.62;86.53
24154;BME280;12312;53.362;-1.518;2023-02-12T03:04:30;101250.72;;;7.71;84.79
24154;BME280;12312;53.362;-1.518;2023-02-12T03:07:03;101254.50;;;7.63;86.09
24154;BME280;12312;53.362;-1.518;2023-02-12T03:09:43;101255.50;;;7.59;86.07
24154;BME280;12312;53.362;-1.518;2023-02-12T03:12:17;101253.06;;;7.19;85.85
24154;BME280;12312;53.362;-1.518;2023-02-12T03:14:49;101252.25;;;7.15;87.37
24154;BME280;12312;53.362;-1.518;2023-02-12T03:17:24;101256.97;;;7.38;86.47
24154;BME280;12312;53.362;-1.518;2023-02-12T03:19:57;101259.75;;;7.34;86.43
24154;BME280;12312;53.362;-1.518;2023-02-12T03:22:37;101245.34;;;7.10;87.05
24154;BME280;12312;53.362;-1.518;2023-02-12T03:25:32;101258.88;;;7.33;87.13
24154;BME280;12312;53.362;-1.518;2023-02-12T03:30:52;101241.19;;;7.64;84.36
24154;BME280;12312;53.362;-1.518;2023-02-12T03:33:31;101245.44;;;7.71;83.96
24154;BME280;12312;53.362;-1.518;2023-02-12T03:36:03;101249.44;;;7.54;85.04
24154;BME280;12312;53.362;-1.518;2023-02-12T03:38:45;101245.03;;;7.22;85.44
24154;BME280;12312;53.362;-1.518;2023-02-12T03:41:23;101250.00;;;7.00;86.77
24154;BME280;12312;53.362;-1.518;2023-02-12T03:43:54;101250.19;;;6.93;86.87
24154;BME280;12312;53.362;-1.518;2023-02-12T03:46:33;101250.31;;;6.88;87.65
24154;BME280;12312;53.362;-1.518;2023-02-12T03:49:09;101257.19;;;6.97;89.09
24154;BME280;12312;53.362;-1.518;2023-02-12T03:51:40;101250.88;;;7.01;88.57
24154;BME280;12312;53.362;-1.518;2023-02-12T03:54:08;101256.88;;;7.41;89.86
24154;BME280;12312;53.362;-1.518;2023-02-12T03:56:39;101258.09;;;7.60;87.46
24154;BME280;12312;53.362;-1.518;2023-02-12T03:59:06;101254.00;;;7.50;86.81
24154;BME280;12312;53.362;-1.518;2023-02-12T04:01:35;101259.53;;;7.73;87.70
24154;BME280;12312;53.362;-1.518;2023-02-12T04:04:04;101246.09;;;7.79;87.09
24154;BME280;12312;53.362;-1.518;2023-02-12T04:06:30;101253.25;;;7.76;86.71
24154;BME280;12312;53.362;-1.518;2023-02-12T04:08:59;101258.63;;;7.42;88.08
24154;BME280;12312;53.362;-1.518;2023-02-12T04:11:45;101263.56;;;7.54;86.53
24154;BME280;12312;53.362;-1.518;2023-02-12T04:17:14;101272.56;;;7.49;85.21
24154;BME280;12312;53.362;-1.518;2023-02-12T04:19:53;101261.25;;;7.42;86.38
24154;BME280;12312;53.362;-1.518;2023-02-12T04:22:54;101268.97;;;7.51;86.45
24154;BME280;12312;53.362;-1.518;2023-02-12T04:26:05;101266.59;;;7.41;84.23
24154;BME280;12312;53.362;-1.518;2023-02-12T04:28:55;101267.25;;;7.16;85.96
24154;BME280;12312;53.362;-1.518;2023-02-12T04:31:38;101263.19;;;7.36;86.15
24154;BME280;12312;53.362;-1.518;2023-02-12T04:34:25;101266.44;;;7.47;85.99
24154;BME280;12312;53.362;-1.518;2023-02-12T04:37:03;101259.78;;;7.32;86.56
24154;BME280;12312;53.362;-1.518;2023-02-12T04:39:32;101256.63;;;7.50;87.46
24154;BME280;12312;53.362;-1.518;2023-02-12T04:42:02;101261.34;;;7.71;84.17
24154;BME280;12312;53.362;-1.518;2023-02-12T04:44:31;101269.38;;;7.36;85.52
24154;BME280;12312;53.362;-1.518;2023-02-12T04:46:56;101261.16;;;7.13;86.04
24154;BME280;12312;53.362;-1.518;2023-02-12T04:49:23;101269.63;;;7.27;87.78
24154;BME280;12312;53.362;-1.518;2023-02-12T04:51:49;101278.50;;;7.57;85.00
24154;BME280;12312;53.362;-1.518;2023-02-12T04:54:16;101266.88;;;7.62;84.89
24154;BME280;12312;53.362;-1.518;2023-02-12T04:56:42;101272.28;;;7.59;84.39
24154;BME280;12312;53.362;-1.518;2023-02-12T04:59:08;101274.41;;;7.45;86.71
24154;BME280;12312;53.362;-1.518;2023-02-12T05:01:35;101268.38;;;7.40;85.08
24154;BME280;12312;53.362;-1.518;2023-02-12T05:04:03;101267.88;;;7.58;84.37
24154;BME280;12312;53.362;-1.518;2023-02-12T05:06:33;101258.19;;;7.57;85.30
24154;BME280;12312;53.362;-1.518;2023-02-12T05:08:59;101276.63;;;7.28;87.67
24154;BME280;12312;53.362;-1.518;2023-02-12T05:11:25;101272.94;;;7.35;87.66
24154;BME280;12312;53.362;-1.518;2023-02-12T05:13:52;101266.88;;;7.30;87.37
24154;BME280;12312;53.362;-1.518;2023-02-12T05:16:19;101261.47;;;7.35;85.51
24154;BME280;12312;53.362;-1.518;2023-02-12T05:18:45;101264.25;;;7.30;83.84
24154;BME280;12312;53.362;-1.518;2023-02-12T05:21:11;101259.06;;;7.58;83.09
24154;BME280;12312;53.362;-1.518;2023-02-12T05:23:37;101256.22;;;7.65;83.22
24154;BME280;12312;53.362;-1.518;2023-02-12T05:26:06;101254.13;;;7.76;82.29
24154;BME280;12312;53.362;-1.518;2023-02-12T05:28:33;101254.63;;;7.58;84.14
24154;BME280;12312;53.362;-1.518;2023-02-12T05:31:01;101248.97;;;7.40;85.00
24154;BME280;12312;53.362;-1.518;2023-02-12T05:33:28;101250.16;;;7.28;84.44
24154;BME280;12312;53.362;-1.518;2023-02-12T05:35:53;101254.38;;;7.37;84.48
24154;BME280;12312;53.362;-1.518;2023-02-12T05:38:21;101251.00;;;7.62;82.91
24154;BME280;12312;53.362;-1.518;2023-02-12T05:40:47;101259.06;;;7.58;83.47
24154;BME280;12312;53.362;-1.518;2023-02-12T05:43:12;101252.47;;;7.40;85.58
24154;BME280;12312;53.362;-1.518;2023-02-12T05:45:38;101244.19;;;7.52;85.36
24154;BME280;12312;53.362;-1.518;2023-02-12T05:48:06;101242.34;;;7.56;84.94
24154;BME280;12312;53.362;-1.518;2023-02-12T05:50:32;101240.56;;;7.56;84.83
24154;BME280;12312;53.362;-1.518;2023-02-12T05:53:00;101250.56;;;7.13;86.24
24154;BME280;12312;53.362;-1.518;2023-02-12T05:55:26;101257.22;;;7.29;86.50
24154;BME280;12312;53.362;-1.518;2023-02-12T05:57:55;101250.72;;;7.07;87.01
24154;BME280;12312;53.362;-1.518;2023-02-12T06:00:21;101250.28;;;6.90;88.17
24154;BME280;12312;53.362;-1.518;2023-02-12T06:02:46;101249.00;;;7.06;88.48
24154;BME280;12312;53.362;-1.518;2023-02-12T06:05:12;101250.66;;;7.10;88.02
24154;BME280;12312;53.362;-1.518;2023-02-12T06:07:37;101241.94;;;7.05;88.50
24154;BME280;12312;53.362;-1.518;2023-02-12T06:10:03;101251.84;;;7.32;88.02
24154;BME280;12312;53.362;-1.518;2023-02-12T06:12:29;101244.53;;;7.40;87.22
24154;BME280;12312;53.362;-1.518;2023-02-12T06:14:55;101241.00;;;7.41;87.21
24154;BME280;12312;53.362;-1.518;2023-02-12T06:17:21;101246.47;;;7.35;87.56
24154;BME280;12312;53.362;-1.518;2023-02-12T06:19:46;101247.59;;;7.25;87.65
24154;BME280;12312;53.362;-1.518;2023-02-12T06:22:11;101240.25;;;7.36;87.95
24154;BME280;12312;53.362;-1.518;2023-02-12T06:24:37;101244.19;;;7.21;89.32
24154;BME280;12312;53.362;-1.518;2023-02-12T06:27:04;101241.06;;;7.38;89.12
24154;BME280;12312;53.362;-1.518;2023-02-12T06:29:32;101238.06;;;7.52;88.30
24154;BME280;12312;53.362;-1.518;2023-02-12T06:31:58;101234.72;;;7.44;88.76
24154;BME280;12312;53.362;-1.518;2023-02-12T06:34:24;101244.63;;;7.37;89.72
24154;BME280;12312;53.362;-1.518;2023-02-12T06:36:50;101249.75;;;7.43;89.03
24154;BME280;12312;53.362;-1.518;2023-02-12T06:39:16;101238.94;;;7.51;92.15
24154;BME280;12312;53.362;-1.518;2023-02-12T06:41:42;101250.97;;;7.32;89.39
24154;BME280;12312;53.362;-1.518;2023-02-12T06:44:09;101250.19;;;7.26;89.76
24154;BME280;12312;53.362;-1.518;2023-02-12T06:46:36;101241.56;;;7.20;89.82
24154;BME280;12312;53.362;-1.518;2023-02-12T06:49:01;101255.63;;;7.22;90.08
24154;BME280;12312;53.362;-1.518;2023-02-12T06:51:29;101254.97;;;7.12;91.81
24154;BME280;12312;53.362;-1.518;2023-02-12T06:53:57;101250.56;;;7.13;92.62
24154;BME280;12312;53.362;-1.518;2023-02-12T06:56:24;101254.81;;;7.18;93.19
24154;BME280;12312;53.362;-1.518;2023-02-12T06:58:55;101258.16;;;7.26;91.30
24154;BME280;12312;53.362;-1.518;2023-02-12T07:01:22;101252.91;;;6.90;92.45
24154;BME280;12312;53.362;-1.518;2023-02-12T07:03:52;101271.06;;;7.05;93.29
24154;BME280;12312;53.362;-1.518;2023-02-12T07:06:19;101256.41;;;7.58;100.00
24154;BME280;12312;53.362;-1.518;2023-02-12T07:08:45;101258.75;;;8.29;100.00
24154;BME280;12312;53.362;-1.518;2023-02-12T07:11:11;101255.69;;;8.69;100.00
24154;BME280;12312;53.362;-1.518;2023-02-12T07:13:36;101259.69;;;8.27;92.24
24154;BME280;12312;53.362;-1.518;2023-02-12T07:16:11;101249.75;;;8.04;89.97
24154;BME280;12312;53.362;-1.518;2023-02-12T07:18:38;101259.97;;;7.87;90.04
24154;BME280;12312;53.362;-1.518;2023-02-12T07:21:05;101269.91;;;7.49;92.37
24154;BME280;12312;53.362;-1.518;2023-02-12T07:23:31;101261.91;;;8.11;100.00
24154;BME280;12312;53.362;-1.518;2023-02-12T07:25:57;101263.06;;;8.61;100.00
24154;BME280;12312;53.362;-1.518;2023-02-12T07:28:26;101258.88;;;8.52;90.37
24154;BME280;12312;53.362;-1.518;2023-02-12T07:30:54;101260.25;;;8.07;89.25
24154;BME280;12312;53.362;-1.518;2023-02-12T07:33:21;101258.81;;;7.97;86.44
24154;BME280;12312;53.362;-1.518;2023-02-12T07:35:47;101258.28;;;7.85;86.89
24154;BME280;12312;53.362;-1.518;2023-02-12T07:38:12;101256.50;;;8.14;92.79
24154;BME280;12312;53.362;-1.518;2023-02-12T07:40:39;101257.84;;;8.00;88.21
24154;BME280;12312;53.362;-1.518;2023-02-12T07:43:04;101262.53;;;7.60;89.69
24154;BME280;12312;53.362;-1.518;2023-02-12T07:45:30;101255.41;;;7.62;90.43
24154;BME280;12312;53.362;-1.518;2023-02-12T07:47:55;101269.13;;;7.45;91.21
24154;BME280;12312;53.362;-1.518;2023-02-12T07:50:21;101271.41;;;7.59;91.78
24154;BME280;12312;53.362;-1.518;2023-02-12T07:52:49;101267.22;;;7.50;91.60
24154;BME280;12312;53.362;-1.518;2023-02-12T07:55:15;101268.06;;;7.51;91.23
24154;BME280;12312;53.362;-1.518;2023-02-12T07:57:41;101272.53;;;7.50;91.93
24154;BME280;12312;53.362;-1.518;2023-02-12T08:00:08;101282.94;;;7.24;91.60
24154;BME280;12312;53.362;-1.518;2023-02-12T08:02:35;101280.69;;;7.09;93.38
24154;BME280;12312;53.362;-1.518;2023-02-12T08:05:01;101275.22;;;7.81;99.73
24154;BME280;12312;53.362;-1.518;2023-02-12T08:07:26;101279.78;;;7.74;91.26
24154;BME280;12312;53.362;-1.518;2023-02-12T08:09:52;101277.97;;;7.76;91.89
24154;BME280;12312;53.362;-1.518;2023-02-12T08:12:19;101271.31;;;7.92;95.49
24154;BME280;12312;53.362;-1.518;2023-02-12T08:14:44;101279.38;;;7.89;91.65
24154;BME280;12312;53.362;-1.518;2023-02-12T08:17:10;101287.56;;;7.80;91.04
24154;BME280;12312;53.362;-1.518;2023-02-12T08:19:38;101287.00;;;8.30;99.13
24154;BME280;12312;53.362;-1.518;2023-02-12T08:22:04;101289.47;;;8.06;93.01
24154;BME280;12312;53.362;-1.518;2023-02-12T08:24:31;101284.00;;;8.12;96.67
24154;BME280;12312;53.362;-1.518;2023-02-12T08:26:57;101285.31;;;7.97;93.83
24154;BME280;12312;53.362;-1.518;2023-02-12T08:29:25;101294.00;;;7.72;92.48
24154;BME280;12312;53.362;-1.518;2023-02-12T08:31:58;101292.81;;;7.51;92.47
24154;BME280;12312;53.362;-1.518;2023-02-12T08:34:26;101283.81;;;7.87;95.33
24154;BME280;12312;53.362;-1.518;2023-02-12T08:36:54;101285.06;;;8.06;94.37
24154;BME280;12312;53.362;-1.518;2023-02-12T08:39:20;101272.69;;;8.05;90.55
24154;BME280;12312;53.362;-1.518;2023-02-12T08:41:47;101276.53;;;7.95;93.96
24154;BME280;12312;53.362;-1.518;2023-02-12T08:44:13;101275.94;;;8.15;94.85
24154;BME280;12312;53.362;-1.518;2023-02-12T08:46:43;101272.59;;;8.08;88.55
24154;BME280;12312;53.362;-1.518;2023-02-12T08:49:15;101286.81;;;7.75;89.32
24154;BME280;12312;53.362;-1.518;2023-02-12T08:51:43;101284.91;;;7.16;92.06
24154;BME280;12312;53.362;-1.518;2023-02-12T08:54:11;101282.28;;;7.48;92.14
24154;BME280;12312;53.362;-1.518;2023-02-12T08:56:38;101282.34;;;7.13;92.48
24154;BME280;12312;53.362;-1.518;2023-02-12T08:59:05;101284.44;;;6.99;94.37
24154;BME280;12312;53.362;-1.518;2023-02-12T09:01:33;101292.00;;;7.14;94.82
24154;BME280;12312;53.362;-1.518;2023-02-12T09:03:59;101288.44;;;7.50;97.41
24154;BME280;12312;53.362;-1.518;2023-02-12T09:06:25;101282.88;;;7.59;94.13
24154;BME280;12312;53.362;-1.518;2023-02-12T09:08:52;101281.13;;;7.58;94.77
24154;BME280;12312;53.362;-1.518;2023-02-12T09:11:21;101290.78;;;7.61;92.68
24154;BME280;12312;53.362;-1.518;2023-02-12T09:13:51;101290.81;;;7.91;97.11
24154;BME280;12312;53.362;-1.518;2023-02-12T09:16:17;101285.59;;;7.88;94.86
24154;BME280;12312;53.362;-1.518;2023-02-12T09:18:43;101285.84;;;7.47;93.43
24154;BME280;12312;53.362;-1.518;2023-02-12T09:21:12;101283.63;;;7.32;92.93
24154;BME280;12312;53.362;-1.518;2023-02-12T09:23:39;101286.56;;;7.52;94.14
24154;BME280;12312;53.362;-1.518;2023-02-12T09:26:06;101282.78;;;7.62;93.27
24154;BME280;12312;53.362;-1.518;2023-02-12T09:28:33;101277.31;;;7.68;90.71
24154;BME280;12312;53.362;-1.518;2023-02-12T09:31:12;101278.97;;;7.72;90.75
24154;BME280;12312;53.362;-1.518;2023-02-12T09:33:38;101267.50;;;7.72;91.33
24154;BME280;12312;53.362;-1.518;2023-02-12T09:36:08;101271.41;;;7.59;91.90
24154;BME280;12312;53.362;-1.518;2023-02-12T09:38:34;101275.19;;;7.50;91.10
24154;BME280;12312;53.362;-1.518;2023-02-12T09:41:17;101278.50;;;7.57;92.13
24154;BME280;12312;53.362;-1.518;2023-02-12T09:51:49;101275.91;;;7.55;90.92
24154;BME280;12312;53.362;-1.518;2023-02-12T09:54:22;101265.72;;;7.72;91.49
24154;BME280;12312;53.362;-1.518;2023-02-12T09:56:52;101262.63;;;7.87;89.93
24154;BME280;12312;53.362;-1.518;2023-02-12T09:59:47;101270.31;;;7.96;90.24
24154;BME280;12312;53.362;-1.518;2023-02-12T10:02:18;101269.94;;;7.79;90.53
24154;BME280;12312;53.362;-1.518;2023-02-12T10:04:45;101269.41;;;7.67;91.37
24154;BME280;12312;53.362;-1.518;2023-02-12T10:12:42;101264.81;;;7.73;89.55
24154;BME280;12312;53.362;-1.518;2023-02-12T10:18:45;101280.94;;;7.64;90.17
24154;BME280;12312;53.362;-1.518;2023-02-12T10:26:45;101274.59;;;7.71;90.80
24154;BME280;12312;53.362;-1.518;2023-02-12T10:29:31;101274.34;;;7.48;90.92
24154;BME280;12312;53.362;-1.518;2023-02-12T10:32:02;101277.03;;;7.47;92.31
24154;BME280;12312;53.362;-1.518;2023-02-12T10:34:35;101271.75;;;7.77;87.80
24154;BME280;12312;53.362;-1.518;2023-02-12T10:37:49;101286.31;;;7.61;87.79
24154;BME280;12312;53.362;-1.518;2023-02-12T10:42:47;101279.03;;;7.69;86.20
24154;BME280;12312;53.362;-1.518;2023-02-12T10:45:17;101278.75;;;7.48;85.26
24154;BME280;12312;53.362;-1.518;2023-02-12T10:47:45;101284.44;;;7.66;87.34
24154;BME280;12312;53.362;-1.518;2023-02-12T10:50:37;101271.22;;;7.65;84.74
24154;BME280;12312;53.362;-1.518;2023-02-12T10:53:05;101284.53;;;7.63;85.11
24154;BME280;12312;53.362;-1.518;2023-02-12T10:55:34;101281.28;;;7.52;85.15
24154;BME280;12312;53.362;-1.518;2023-02-12T10:58:02;101287.13;;;7.65;86.00
24154;BME280;12312;53.362;-1.518;2023-02-12T11:00:31;101286.25;;;7.64;87.30
24154;BME280;12312;53.362;-1.518;2023-02-12T11:03:20;101284.19;;;7.75;86.40
24154;BME280;12312;53.362;-1.518;2023-02-12T11:05:46;101280.19;;;7.91;82.82
24154;BME280;12312;53.362;-1.518;2023-02-12T11:08:38;101275.38;;;7.75;83.57
24154;BME280;12312;53.362;-1.518;2023-02-12T11:11:22;101285.81;;;7.81;86.20
24154;BME280;12312;53.362;-1.518;2023-02-12T11:14:03;101284.13;;;8.07;84.38
24154;BME280;12312;53.362;-1.518;2023-02-12T11:16:35;101282.09;;;7.86;83.80
24154;BME280;12312;53.362;-1.518;2023-02-12T11:19:19;101269.50;;;7.64;84.84
24154;BME280;12312;53.362;-1.518;2023-02-12T11:21:46;101269.63;;;7.90;83.16
24154;BME280;12312;53.362;-1.518;2023-02-12T11:24:28;101286.56;;;7.52;83.99
24154;BME280;12312;53.362;-1.518;2023-02-12T11:29:43;101270.13;;;7.73;83.97
24154;BME280;12312;53.362;-1.518;2023-02-12T11:32:18;101279.31;;;7.60;85.29
24154;BME280;12312;53.362;-1.518;2023-02-12T11:35:04;101271.69;;;7.80;83.12
24154;BME280;12312;53.362;-1.518;2023-02-12T11:37:32;101265.38;;;7.52;83.91
24154;BME280;12312;53.362;-1.518;2023-02-12T11:40:01;101264.72;;;7.76;84.14
24154;BME280;12312;53.362;-1.518;2023-02-12T11:42:29;101260.91;;;7.86;83.90
24154;BME280;12312;53.362;-1.518;2023-02-12T11:45:02;101273.13;;;7.60;83.64
24154;BME280;12312;53.362;-1.518;2023-02-12T11:47:31;101264.91;;;7.70;83.25
24154;BME280;12312;53.362;-1.518;2023-02-12T11:50:17;101267.66;;;7.66;84.79
24154;BME280;12312;53.362;-1.518;2023-02-12T11:52:48;101267.47;;;7.73;83.28
24154;BME280;12312;53.362;-1.518;2023-02-12T11:55:22;101263.75;;;7.79;82.32
24154;BME280;12312;53.362;-1.518;2023-02-12T11:57:51;101266.22;;;7.54;82.59
24154;BME280;12312;53.362;-1.518;2023-02-12T12:00:23;101272.91;;;7.67;84.01
24154;BME280;12312;53.362;-1.518;2023-02-12T12:03:30;101264.91;;;7.70;83.71
24154;BME280;12312;53.362;-1.518;2023-02-12T12:06:18;101268.34;;;7.72;82.95
24154;BME280;12312;53.362;-1.518;2023-02-12T12:11:42;101256.44;;;7.88;82.76
24154;BME280;12312;53.362;-1.518;2023-02-12T12:16:50;101254.31;;;7.70;83.07
24154;BME280;12312;53.362;-1.518;2023-02-12T12:19:51;101254.44;;;7.64;83.45
24154;BME280;12312;53.362;-1.518;2023-02-12T12:25:31;101236.94;;;7.89;83.06
24154;BME280;12312;53.362;-1.518;2023-02-12T12:28:08;101236.19;;;7.84;82.79
24154;BME280;12312;53.362;-1.518;2023-02-12T12:30:52;101239.75;;;8.14;94.36
24154;BME280;12312;53.362;-1.518;2023-02-12T12:33:37;101232.47;;;7.91;83.58
24154;BME280;12312;53.362;-1.518;2023-02-12T12:49:58;101219.78;;;7.73;83.32
24154;BME280;12312;53.362;-1.518;2023-02-12T12:52:53;101208.88;;;7.53;84.10
24154;BME280;12312;53.362;-1.518;2023-02-12T12:55:50;101206.00;;;7.61;84.78
24154;BME280;12312;53.362;-1.518;2023-02-12T13:05:07;101204.94;;;7.66;85.79
24154;BME280;12312;53.362;-1.518;2023-02-12T13:18:12;101204.75;;;7.42;84.74
24154;BME280;12312;53.362;-1.518;2023-02-12T13:20:50;101213.81;;;7.65;84.59
24154;BME280;12312;53.362;-1.518;2023-02-12T13:28:57;101205.31;;;7.22;86.69
24154;BME280;12312;53.362;-1.518;2023-02-12T13:31:27;101201.19;;;7.44;87.75
24154;BME280;12312;53.362;-1.518;2023-02-12T13:33:57;101191.13;;;7.55;85.13
24154;BME280;12312;53.362;-1.518;2023-02-12T13:36:24;101190.53;;;7.76;85.19
24154;BME280;12312;53.362;-1.518;2023-02-12T13:39:03;101198.53;;;7.44;85.56
24154;BME280;12312;53.362;-1.518;2023-02-12T13:41:32;101184.03;;;7.25;85.90
24154;BME280;12312;53.362;-1.518;2023-02-12T13:44:18;101186.78;;;7.22;85.61
24154;BME280;12312;53.362;-1.518;2023-02-12T13:47:08;101182.59;;;7.46;85.77
24154;BME280;12312;53.362;-1.518;2023-02-12T13:52:24;101171.44;;;7.35;86.06
24154;BME280;12312;53.362;-1.518;2023-02-12T13:57:24;101175.56;;;7.12;86.02
24154;BME280;12312;53.362;-1.518;2023-02-12T13:59:54;101165.75;;;7.16;86.29
24154;BME280;12312;53.362;-1.518;2023-02-12T14:04:59;101150.53;;;7.24;87.19
24154;BME280;12312;53.362;-1.518;2023-02-12T14:07:41;101156.69;;;7.26;85.79
24154;BME280;12312;53.362;-1.518;2023-02-12T14:10:19;101152.88;;;7.35;85.19
24154;BME280;12312;53.362;-1.518;2023-02-12T14:12:44;101165.41;;;7.28;86.19
24154;BME280;12312;53.362;-1.518;2023-02-12T14:15:33;101160.75;;;7.38;84.93
24154;BME280;12312;53.362;-1.518;2023-02-12T14:20:47;101151.19;;;7.32;86.44
24154;BME280;12312;53.362;-1.518;2023-02-12T14:23:23;101141.00;;;7.48;85.97
24154;BME280;12312;53.362;-1.518;2023-02-12T14:28:49;101142.31;;;7.64;84.30
24154;BME280;12312;53.362;-1.518;2023-02-12T14:31:27;101144.28;;;7.86;84.72
24154;BME280;12312;53.362;-1.518;2023-02-12T14:38:59;101142.50;;;7.27;85.32
24154;BME280;12312;53.362;-1.518;2023-02-12T14:41:31;101139.16;;;7.51;85.97
24154;BME280;12312;53.362;-1.518;2023-02-12T14:47:10;101143.63;;;7.49;86.45
24154;BME280;12312;53.362;-1.518;2023-02-12T14:49:46;101135.22;;;7.35;84.19
24154;BME280;12312;53.362;-1.518;2023-02-12T14:52:17;101128.97;;;7.38;84.28
24154;BME280;12312;53.362;-1.518;2023-02-12T14:54:53;101134.34;;;7.35;84.83
24154;BME280;12312;53.362;-1.518;2023-02-12T14:59:55;101130.38;;;7.49;83.84
24154;BME280;12312;53.362;-1.518;2023-02-12T15:02:25;101133.66;;;7.28;85.16
24154;BME280;12312;53.362;-1.518;2023-02-12T15:04:53;101123.88;;;7.30;85.06
24154;BME280;12312;53.362;-1.518;2023-02-12T15:07:28;101120.09;;;7.39;84.58
24154;BME280;12312;53.362;-1.518;2023-02-12T15:10:18;101114.03;;;7.35;85.75